Latest Weather Observations for Dartmoor

IDV60801

Issued at 10:02 pm EST Tuesday 1 September 2015 (issued every 30 minutes, with the page automatically refreshed every 10 minutes)

About weather observations | Map of weather stations | Latest weather observations for VIC | Other Formats
Station Details ID: 090194 Name: DARTMOOR Lat: -37.92 Lon: 141.26 Height: 51.0 m
Data from the previous 72 hours. | See also: Recent months at Dartmoor
Date/Time
EST
Temp
°C
App
Temp
°C
Dew
Point
Rel
Hum
%
Delta-T
°C
Wind Press
QNH
hPa
Press
MSL
hPa
Rain
since 9 am
mm
Dir
 
Spd
km/h
Gust
km/h
Spd
kts
Gust
kts
01/10:00pm 10.5 - - - - CALM 0 4 0 2 1010.0 1010.0 0.0
01/09:30pm 11.4 - - - - ENE 2 4 1 2 1010.1 1010.1 0.0
01/09:00pm 12.3 - - - - ENE 7 9 4 5 1010.3 1010.3 0.0
01/08:30pm 12.7 - - - - ENE 7 11 4 6 1010.3 1010.3 0.0
01/08:00pm 12.8 - - - - ENE 7 9 4 5 1010.5 1010.5 0.0
01/07:30pm 13.0 - - - - ENE 7 9 4 5 1010.5 1010.5 0.0
01/07:00pm 13.1 - - - - ENE 7 9 4 5 1010.5 1010.5 0.0
01/06:30pm 13.3 - - - - ENE 6 9 3 5 1010.5 1010.5 0.0
01/06:00pm 13.8 - - - - E 6 7 3 4 1010.5 1010.5 0.0
01/05:30pm 14.3 - - - - ENE 6 9 3 5 1010.4 1010.4 0.0
01/05:00pm 15.1 - - - - ENE 6 7 3 4 1010.2 1010.2 0.0
01/04:30pm 15.6 - - - - NE 7 9 4 5 1010.2 1010.2 0.0
01/04:00pm 15.9 - - - - NE 9 13 5 7 1010.5 1010.5 0.0
01/03:30pm 15.6 - - - - NE 11 15 6 8 1010.9 1010.9 0.0
01/03:00pm 15.9 - - - - NE 7 13 4 7 1011.4 1011.4 0.0
01/02:30pm 15.8 - - - - NE 9 13 5 7 1011.8 1011.8 0.0
01/02:00pm 14.8 - - - - NNE 9 15 5 8 1012.3 1012.3 0.0
01/01:30pm 14.7 - - - - NNE 9 17 5 9 1012.6 1012.6 0.0
01/01:00pm 14.7 - - - - NNE 9 15 5 8 1013.2 1013.2 0.0
01/12:30pm 14.8 - - - - N 11 19 6 10 1013.8 1013.8 0.0
01/12:00pm 13.7 - - - - N 9 15 5 8 1014.2 1014.2 0.0
01/11:30am 13.2 - - - - NE 7 13 4 7 1014.4 1014.4 0.0
01/11:00am 11.2 - - - - NNE 7 13 4 7 1014.9 1014.9 0.0
01/10:30am 9.4 - - - - ENE 6 9 3 5 1015.3 1015.3 0.0
01/10:00am 7.8 - - - - NE 7 11 4 6 1015.9 1015.9 0.0
01/09:30am 6.0 - - - - NE 6 9 3 5 1016.0 1016.1 0.0
01/09:00am 4.6 - - - - CALM 0 0 0 0 1016.1 1016.2 0.0
01/08:30am 3.5 - - - - E 4 6 2 3 1016.0 1016.1 0.0
01/08:00am 2.4 - - - - CALM 0 0 0 0 1016.3 1016.4 0.0
01/07:30am 1.6 - - - - CALM 0 0 0 0 1016.1 1016.2 0.0
01/07:00am 1.1 - - - - CALM 0 0 0 0 1016.1 1016.2 0.0
01/06:30am 1.4 - - - - CALM 0 0 0 0 1015.8 1015.9 0.0
01/06:00am 1.2 - - - - CALM 0 0 0 0 1015.9 1016.0 0.0
01/05:30am 1.1 - - - - CALM 0 0 0 0 1015.8 1015.9 0.0
01/05:00am 1.3 - - - - ENE 4 4 2 2 1015.9 1016.0 0.0
01/04:30am 1.4 - - - - ENE 6 6 3 3 1015.7 1015.8 0.0
01/04:00am 1.7 - - - - ENE 4 6 2 3 1015.9 1016.0 0.0
01/03:30am 2.3 - - - - CALM 0 0 0 0 1016.4 1016.5 0.0
01/03:00am 2.0 - - - - CALM 0 0 0 0 1016.7 1016.8 0.0
01/02:30am 3.0 - - - - CALM 0 0 0 0 1017.2 1017.3 0.0
01/02:00am 3.7 - - - - ENE 4 6 2 3 1017.8 1017.9 0.0
01/01:30am 4.2 - - - - ENE 4 4 2 2 1017.9 1018.0 0.0
01/01:00am 4.5 - - - - E 4 7 2 4 1018.1 1018.2 0.0
01/12:30am 4.3 - - - - E 6 6 3 3 1018.3 1018.4 0.0
01/12:00am 5.0 - - - - E 7 7 4 4 1018.5 1018.6 0.0
 
Date/Time
EST
Temp
°C
App
Temp
°C
Dew
Point
Rel
Hum
%
Delta-T
°C
Wind Press
QNH
hPa
Press
MSL
hPa
Rain
since 9 am
mm
Dir
 
Spd
km/h
Gust
km/h
Spd
kts
Gust
kts
31/11:30pm 6.2 - - - - CALM 0 0 0 0 1018.9 1019.0 0.0
31/11:00pm 6.9 - - - - CALM 0 0 0 0 1019.2 1019.3 0.0
31/10:30pm 7.0 - - - - ESE 7 9 4 5 1019.3 1019.4 0.0
31/10:00pm 7.4 - - - - ESE 6 7 3 4 1019.5 1019.6 0.0
31/09:30pm 7.5 - - - - CALM 0 0 0 0 1019.7 1019.8 0.0
31/09:00pm 7.6 - - - - CALM 0 2 0 1 1019.5 1019.6 0.0
31/08:30pm 7.9 - - - - SE 7 9 4 5 1019.5 1019.6 0.0
31/08:00pm 8.5 - - - - CALM 0 6 0 3 1019.5 1019.6 0.0
31/07:30pm 8.5 - - - - CALM 0 0 0 0 1019.4 1019.5 0.0
31/07:00pm 8.8 - - - - S 4 6 2 3 1019.1 1019.2 0.0
31/06:30pm 9.0 - - - - SSE 6 7 3 4 1018.8 1018.9 0.0
31/06:00pm 9.4 - - - - SSE 9 11 5 6 1019.0 1019.1 0.0
31/05:30pm 10.1 - - - - SSE 7 9 4 5 1019.0 1019.1 0.0
31/05:00pm 10.2 - - - - SSE 9 11 5 6 1019.1 1019.2 0.0
31/04:30pm 10.6 - - - - S 13 17 7 9 1019.3 1019.4 0.0
31/04:00pm 11.6 - - - - CALM 0 0 0 0 1019.3 1019.4 0.0
31/03:30pm 11.4 - - - - WSW 4 6 2 3 1019.5 1019.6 0.0
31/03:00pm 11.3 - - - - W 4 7 2 4 1019.9 1020.0 0.0
31/02:30pm 11.2 - - - - SW 4 7 2 4 1020.0 1020.1 0.0
31/02:00pm 11.3 - - - - SW 4 9 2 5 1020.2 1020.3 0.0
31/01:30pm 11.8 - - - - CALM 0 0 0 0 1020.4 1020.5 0.0
31/01:00pm 10.9 - - - - CALM 0 0 0 0 1021.0 1021.1 0.0
31/12:30pm 11.1 - - - - CALM 0 0 0 0 1021.5 1021.6 0.0
31/12:00pm 10.7 - - - - ENE 2 7 1 4 1021.9 1022.0 0.0
31/11:30am 10.9 - - - - CALM 0 0 0 0 1022.1 1022.2 0.0
31/11:00am 10.5 - - - - CALM 0 0 0 0 1022.2 1022.3 0.0
31/10:30am 9.9 - - - - E 2 4 1 2 1022.3 1022.4 0.0
31/10:00am 9.6 - - - - CALM 0 0 0 0 1022.5 1022.6 0.0
31/09:30am 8.9 - - - - NNW 4 6 2 3 1022.7 1022.8 0.0
31/09:00am 8.1 - - - - N 4 6 2 3 1022.6 1022.7 0.0
31/08:30am 7.4 - - - - CALM 0 0 0 0 1022.6 1022.7 0.0
31/08:00am 7.1 - - - - WSW 4 9 2 5 1022.5 1022.6 0.0
31/07:30am 6.8 - - - - NW 4 7 2 4 1022.3 1022.4 0.0
31/07:00am 6.8 - - - - CALM 0 0 0 0 1022.2 1022.3 0.0
31/06:30am 6.9 - - - - CALM 0 0 0 0 1022.3 1022.4 0.0
31/06:00am 6.8 - - - - CALM 0 0 0 0 1022.1 1022.2 0.0
31/05:30am 6.8 - - - - SE 2 7 1 4 1022.2 1022.3 0.0
31/05:00am 6.7 - - - - NE 2 6 1 3 1022.2 1022.3 0.0
31/04:30am 6.7 - - - - CALM 0 0 0 0 1022.3 1022.4 0.0
31/04:00am 6.6 - - - - CALM 0 0 0 0 1022.3 1022.4 0.0
31/03:30am 6.5 - - - - CALM 0 0 0 0 1022.3 1022.4 0.0
31/03:00am 6.5 - - - - CALM 0 0 0 0 1022.6 1022.7 0.0
31/02:30am 6.3 - - - - CALM 0 0 0 0 1022.9 1023.0 0.0
31/02:00am 6.4 - - - - CALM 0 0 0 0 1023.2 1023.3 0.0
31/01:30am 6.3 - - - - CALM 0 0 0 0 1023.6 1023.7 0.0
31/01:00am 6.1 - - - - CALM 0 0 0 0 1023.9 1024.0 0.0
31/12:30am 6.0 - - - - CALM 0 0 0 0 1024.0 1024.1 0.0
31/12:00am 6.0 - - - - CALM 0 0 0 0 1024.4 1024.5 0.0
 
Date/Time
EST
Temp
°C
App
Temp
°C
Dew
Point
Rel
Hum
%
Delta-T
°C
Wind Press
QNH
hPa
Press
MSL
hPa
Rain
since 9 am
mm
Dir
 
Spd
km/h
Gust
km/h
Spd
kts
Gust
kts
30/11:30pm 5.6 - - - - CALM 0 0 0 0 1024.5 1024.6 0.0
30/11:00pm 5.7 - - - - CALM 0 0 0 0 1024.7 1024.8 0.0
30/10:30pm 5.3 - - - - CALM 0 0 0 0 1024.9 1025.0 0.0
30/10:00pm 4.5 - - - - CALM 0 0 0 0 1025.0 1025.1 0.0
30/09:30pm 4.7 - - - - CALM 0 2 0 1 1025.1 1025.2 0.0
30/09:00pm 5.4 - - - - SE 7 7 4 4 1025.1 1025.2 0.0
30/08:30pm 5.4 - - - - SE 9 9 5 5 1025.0 1025.1 0.0
30/08:00pm 6.2 - - - - SE 6 7 3 4 1024.9 1025.0 0.0
30/07:30pm 6.7 - - - - SSE 9 13 5 7 1024.7 1024.8 0.0
30/07:00pm 8.0 - - - - SE 11 15 6 8 1024.6 1024.7 0.0
30/06:30pm 9.4 - - - - SE 13 15 7 8 1024.4 1024.5 0.0
30/06:00pm 9.9 - - - - SSE 11 15 6 8 1024.3 1024.4 0.0
30/05:30pm 10.5 - - - - S 2 9 1 5 1024.3 1024.4 0.0
30/05:00pm 10.9 - - - - CALM 0 6 0 3 1024.5 1024.6 0.0
30/04:30pm 10.8 - - - - SSE 7 9 4 5 1024.5 1024.6 0.0
30/04:00pm 11.0 - - - - S 11 15 6 8 1024.7 1024.8 0.0
30/03:30pm 11.4 - - - - S 9 13 5 7 1024.7 1024.8 0.0
30/03:00pm 10.7 - - - - SSW 13 17 7 9 1024.8 1024.9 0.0
30/02:30pm 11.6 - - - - S 6 11 3 6 1024.8 1024.9 0.0
30/02:00pm 10.7 - - - - SSW 7 11 4 6 1025.3 1025.4 0.0
30/01:30pm 10.9 - - - - SE 7 11 4 6 1025.5 1025.6 0.0
30/01:00pm 10.6 - - - - S 11 17 6 9 1025.8 1025.9 0.0
30/12:30pm 11.4 - - - - SSW 7 17 4 9 1026.0 1026.1 0.0
30/12:00pm 10.7 - - - - ESE 6 7 3 4 1026.5 1026.6 0.0
30/11:30am 9.7 - - - - SE 17 20 9 11 1027.0 1027.1 0.0
30/11:00am 10.9 - - - - SE 9 15 5 8 1027.1 1027.2 0.0
30/10:30am 10.1 - - - - SE 7 11 4 6 1027.2 1027.3 0.0
30/10:00am 9.3 - - - - CALM 0 4 0 2 1027.5 1027.6 0.0
30/09:30am 7.3 - - - - CALM 0 0 0 0 1027.8 1027.9 0.0
30/09:00am 6.1 - - - - CALM 0 0 0 0 1027.9 1028.0 0.2
30/08:30am 5.5 - - - - CALM 0 2 0 1 1028.0 1028.1 0.2
30/08:00am 4.0 - - - - CALM 0 0 0 0 1027.7 1027.8 0.2
30/07:30am 3.1 - - - - CALM 0 0 0 0 1027.3 1027.4 0.2
30/07:00am 2.8 - - - - CALM 0 0 0 0 1027.2 1027.3 0.2
30/06:30am 3.3 - - - - NNE 4 4 2 2 1026.9 1027.0 0.2
30/06:00am 3.8 - - - - CALM 0 0 0 0 1026.9 1027.0 0.2
30/05:30am 3.4 - - - - E 4 9 2 5 1027.0 1027.1 0.2
30/05:00am 3.3 - - - - CALM 0 0 0 0 1026.8 1026.9 0.0
30/04:30am 3.8 - - - - CALM 0 0 0 0 1026.8 1026.9 0.0
30/04:00am 3.8 - - - - CALM 0 0 0 0 1027.0 1027.1 0.0
30/03:30am 4.3 - - - - CALM 0 0 0 0 1027.1 1027.2 0.0
30/03:00am 4.0 - - - - CALM 0 0 0 0 1027.4 1027.5 0.0
30/02:30am 3.3 - - - - CALM 0 0 0 0 1027.7 1027.8 0.0
30/02:00am 4.3 - - - - CALM 0 0 0 0 1028.0 1028.1 0.0
30/01:30am 4.2 - - - - CALM 0 4 0 2 1028.4 1028.4 0.0
30/01:00am 4.2 - - - - CALM 0 0 0 0 1028.6 1028.6 0.0
30/12:30am 4.2 - - - - CALM 0 0 0 0 1028.5 1028.5 0.0
30/12:00am 4.3 - - - - CALM 0 0 0 0 1028.7 1028.7 0.0
 
Date/Time
EST
Temp
°C
App
Temp
°C
Dew
Point
Rel
Hum
%
Delta-T
°C
Wind Press
QNH
hPa
Press
MSL
hPa
Rain
since 9 am
mm
Dir
 
Spd
km/h
Gust
km/h
Spd
kts
Gust
kts
29/11:30pm 4.0 - - - - CALM 0 0 0 0 1028.8 1028.8 0.0
29/11:00pm 4.0 - - - - CALM 0 0 0 0 1028.9 1028.9 0.0
29/10:30pm 4.3 - - - - CALM 0 0 0 0 1029.1 1029.1 0.0

Other Formats:

Comma delimited format used in spreadsheet applications
http://www.bom.gov.au/fwo/IDV60801/IDV60801.95822.axf

JavaScript Object Notation format (JSON) in row-major order
http://www.bom.gov.au/fwo/IDV60801/IDV60801.95822.json